Time,TemperatureF,DewpointF,PressureIn,WindDirection,WindDirectionDegrees,WindSpeedMPH,WindSpeedGustMPH,Humidity,HourlyPrecipIn,Conditions,Clouds,dailyrainin,SoftwareType,DateUTC
2013-05-18 00:02:00,65.0,64.0,30.01,North,0,2.0,3.0,95,-99.99,,,-99.99,,2013-05-18 05:02:00,
2013-05-18 00:12:00,65.0,64.0,30.01,ESE,112,2.0,3.0,96,-99.99,,,-99.99,,2013-05-18 05:12:00,
2013-05-18 00:22:00,65.0,64.0,30.01,ESE,112,3.0,5.0,97,-99.99,,,-99.99,,2013-05-18 05:22:00,
2013-05-18 00:31:00,65.0,64.0,30.01,SE,135,3.0,4.0,97,-99.99,,,-99.99,,2013-05-18 05:31:00,
2013-05-18 00:42:00,65.0,64.0,30.02,ESE,112,2.0,3.0,97,-99.99,,,-99.99,,2013-05-18 05:42:00,
2013-05-18 00:51:00,65.0,64.0,30.02,ESE,112,3.0,5.0,97,-99.99,,,-99.99,,2013-05-18 05:51:00,
2013-05-18 01:02:00,65.0,64.0,30.02,ESE,112,2.0,6.0,98,-99.99,,,-99.99,,2013-05-18 06:02:00,
2013-05-18 01:11:00,65.0,64.0,30.02,SE,135,0.0,-999.0,98,-99.99,,,-99.99,,2013-05-18 06:11:00,
2013-05-18 01:22:00,65.0,64.0,30.02,ESE,112,2.0,4.0,98,-99.99,,,-99.99,,2013-05-18 06:22:00,
2013-05-18 01:31:00,65.0,64.0,30.02,ESE,112,3.0,3.0,98,-99.99,,,-99.99,,2013-05-18 06:31:00,
2013-05-18 01:42:00,64.0,64.0,30.02,ESE,112,3.0,4.0,99,-99.99,,,-99.99,,2013-05-18 06:42:00,
2013-05-18 01:51:00,65.0,64.0,30.02,SE,135,2.0,5.0,99,-99.99,,,-99.99,,2013-05-18 06:51:00,
2013-05-18 02:01:00,64.0,64.0,30.02,SSE,157,3.0,4.0,99,-99.99,,,-99.99,,2013-05-18 07:01:00,
2013-05-18 02:11:00,64.0,64.0,30.02,SSE,157,3.0,4.0,99,-99.99,,,-99.99,,2013-05-18 07:11:00,
2013-05-18 02:21:00,64.0,64.0,30.02,SE,135,1.0,4.0,99,-99.99,,,-99.99,,2013-05-18 07:21:00,
2013-05-18 02:31:00,64.0,63.0,30.02,ESE,112,2.0,3.0,99,-99.99,,,-99.99,,2013-05-18 07:31:00,
2013-05-18 02:42:00,64.0,64.0,30.02,SE,135,0.0,-999.0,99,-99.99,,,-99.99,,2013-05-18 07:42:00,
2013-05-18 02:52:00,64.0,64.0,30.02,SE,135,3.0,4.0,100,-99.99,,,-99.99,,2013-05-18 07:52:00,
2013-05-18 03:01:00,64.0,63.0,30.02,SE,135,2.0,4.0,100,-99.99,,,-99.99,,2013-05-18 08:01:00,
2013-05-18 03:11:00,64.0,63.0,30.02,SE,135,2.0,3.0,100,-99.99,,,-99.99,,2013-05-18 08:11:00,
2013-05-18 03:21:00,63.0,63.0,30.02,North,0,2.0,4.0,100,-99.99,,,-99.99,,2013-05-18 08:21:00,
2013-05-18 03:32:00,63.0,63.0,30.02,ESE,112,2.0,4.0,100,-99.99,,,-99.99,,2013-05-18 08:32:00,
2013-05-18 03:42:00,63.0,63.0,30.01,ESE,112,2.0,3.0,100,-99.99,,,-99.99,,2013-05-18 08:42:00,
2013-05-18 03:52:00,63.0,63.0,30.01,SE,135,2.0,4.0,100,-99.99,,,-99.99,,2013-05-18 08:52:00,
2013-05-18 04:02:00,63.0,63.0,30.01,SE,135,2.0,3.0,100,-99.99,,,-99.99,,2013-05-18 09:02:00,
2013-05-18 04:11:00,63.0,63.0,30.01,SE,135,2.0,3.0,100,-99.99,,,-99.99,,2013-05-18 09:11:00,
2013-05-18 04:22:00,63.0,63.0,30.01,SSE,157,2.0,2.0,100,-99.99,,,-99.99,,2013-05-18 09:22:00,
2013-05-18 04:32:00,63.0,63.0,30.01,SSE,157,2.0,3.0,100,-99.99,,,-99.99,,2013-05-18 09:32:00,
2013-05-18 04:43:00,62.0,62.0,30.01,SSE,157,2.0,4.0,100,-99.99,,,-99.99,,2013-05-18 09:43:00,
2013-05-18 04:53:00,62.0,62.0,30.01,SE,135,1.0,3.0,100,-99.99,,,-99.99,,2013-05-18 09:53:00,
2013-05-18 05:02:00,62.0,62.0,30.01,ESE,112,1.0,3.0,100,-99.99,,,-99.99,,2013-05-18 10:02:00,
2013-05-18 05:12:00,62.0,62.0,30.01,North,0,2.0,3.0,100,-99.99,,,-99.99,,2013-05-18 10:12:00,
2013-05-18 05:22:00,62.0,62.0,30.02,ESE,112,2.0,3.0,100,-99.99,,,-99.99,,2013-05-18 10:22:00,
2013-05-18 05:33:00,62.0,62.0,30.02,ESE,112,3.0,4.0,100,-99.99,,,-99.99,,2013-05-18 10:33:00,
2013-05-18 05:42:00,61.0,61.0,30.02,ESE,112,4.0,6.0,100,-99.99,,,-99.99,,2013-05-18 10:42:00,
2013-05-18 05:52:00,61.0,61.0,30.02,ESE,112,3.0,4.0,100,-99.99,,,-99.99,,2013-05-18 10:52:00,
2013-05-18 06:02:00,61.0,61.0,30.02,SE,135,2.0,3.0,100,-99.99,,,-99.99,,2013-05-18 11:02:00,
2013-05-18 06:12:00,61.0,61.0,30.02,SE,135,2.0,3.0,100,-99.99,,,-99.99,,2013-05-18 11:12:00,
2013-05-18 06:22:00,61.0,61.0,30.02,SE,135,4.0,6.0,100,-99.99,,,-99.99,,2013-05-18 11:22:00,
2013-05-18 06:33:00,61.0,61.0,30.02,SE,135,3.0,6.0,100,-99.99,,,-99.99,,2013-05-18 11:33:00,
2013-05-18 06:42:00,61.0,61.0,30.02,SE,135,3.0,6.0,100,-99.99,,,-99.99,,2013-05-18 11:42:00,
2013-05-18 06:52:00,61.0,61.0,30.02,SE,135,4.0,7.0,100,-99.99,,,-99.99,,2013-05-18 11:52:00,
2013-05-18 07:01:00,62.0,62.0,30.02,ESE,112,4.0,6.0,100,-99.99,,,-99.99,,2013-05-18 12:01:00,
2013-05-18 07:12:00,62.0,62.0,30.02,SE,135,4.0,7.0,100,-99.99,,,-99.99,,2013-05-18 12:12:00,
2013-05-18 07:23:00,62.0,62.0,30.03,SE,135,4.0,6.0,100,-99.99,,,-99.99,,2013-05-18 12:23:00,
2013-05-18 07:33:00,63.0,63.0,30.04,SE,135,4.0,6.0,100,-99.99,,,-99.99,,2013-05-18 12:33:00,
2013-05-18 07:42:00,63.0,63.0,30.04,SE,135,5.0,8.0,100,-99.99,,,-99.99,,2013-05-18 12:42:00,
2013-05-18 07:52:00,63.0,63.0,30.05,SE,135,5.0,7.0,100,-99.99,,,-99.99,,2013-05-18 12:52:00,
2013-05-18 08:01:00,64.0,64.0,30.05,ESE,112,5.0,7.0,100,-99.99,,,-99.99,,2013-05-18 13:01:00,
2013-05-18 08:11:00,64.0,64.0,30.05,SE,135,5.0,7.0,100,-99.99,,,-99.99,,2013-05-18 13:11:00,
2013-05-18 08:21:00,64.0,64.0,30.05,SE,135,4.0,8.0,100,-99.99,,,-99.99,,2013-05-18 13:21:00,
2013-05-18 08:33:00,64.0,64.0,30.06,SE,135,5.0,8.0,100,-99.99,,,-99.99,,2013-05-18 13:33:00,
2013-05-18 08:43:00,65.0,65.0,30.06,SE,135,4.0,7.0,100,-99.99,,,-99.99,,2013-05-18 13:43:00,
2013-05-18 08:52:00,65.0,65.0,30.05,ESE,112,5.0,7.0,100,-99.99,,,-99.99,,2013-05-18 13:52:00,
2013-05-18 09:03:00,66.0,66.0,30.05,ESE,112,5.0,8.0,100,-99.99,,,-99.99,,2013-05-18 14:03:00,
2013-05-18 09:12:00,66.0,66.0,30.05,SE,135,5.0,7.0,99,-99.99,,,-99.99,,2013-05-18 14:12:00,
2013-05-18 09:22:00,67.0,66.0,30.05,SSE,157,5.0,8.0,99,-99.99,,,-99.99,,2013-05-18 14:22:00,
2013-05-18 09:32:00,67.0,66.0,30.05,SE,135,6.0,9.0,97,-99.99,,,-99.99,,2013-05-18 14:32:00,
2013-05-18 09:42:00,68.0,67.0,30.05,SE,135,6.0,9.0,95,-99.99,,,-99.99,,2013-05-18 14:42:00,
2013-05-18 09:54:00,69.0,67.0,30.05,SE,135,5.0,8.0,94,-99.99,,,-99.99,,2013-05-18 14:54:00,
2013-05-18 10:03:00,70.0,67.0,30.05,SE,135,6.0,9.0,91,-99.99,,,-99.99,,2013-05-18 15:03:00,
2013-05-18 10:13:00,71.0,68.0,30.05,SE,135,6.0,10.0,88,-99.99,,,-99.99,,2013-05-18 15:13:00,
2013-05-18 10:23:00,72.0,68.0,30.05,ESE,112,7.0,9.0,87,-99.99,,,-99.99,,2013-05-18 15:23:00,
2013-05-18 10:33:00,72.0,68.0,30.05,ESE,112,6.0,10.0,86,-99.99,,,-99.99,,2013-05-18 15:33:00,
2013-05-18 10:43:00,73.0,68.0,30.05,ESE,112,7.0,11.0,85,-99.99,,,-99.99,,2013-05-18 15:43:00,
2013-05-18 10:53:00,74.0,68.0,30.05,SE,135,6.0,12.0,84,-99.99,,,-99.99,,2013-05-18 15:53:00,
2013-05-18 11:02:00,74.0,68.0,30.05,ESE,112,7.0,11.0,83,-99.99,,,-99.99,,2013-05-18 16:02:00,
2013-05-18 11:13:00,74.0,68.0,30.05,SE,135,6.0,11.0,83,-99.99,,,-99.99,,2013-05-18 16:13:00,
2013-05-18 11:22:00,74.0,68.0,30.04,SE,135,7.0,12.0,81,-99.99,,,-99.99,,2013-05-18 16:22:00,
2013-05-18 11:33:00,75.0,68.0,30.04,SE,135,6.0,10.0,79,-99.99,,,-99.99,,2013-05-18 16:33:00,
2013-05-18 11:42:00,75.0,68.0,30.04,SE,135,7.0,10.0,78,-99.99,,,-99.99,,2013-05-18 16:42:00,
2013-05-18 11:52:00,76.0,68.0,30.04,ESE,112,8.0,11.0,76,-99.99,,,-99.99,,2013-05-18 16:52:00,
2013-05-18 12:02:00,76.0,68.0,30.03,ESE,112,6.0,10.0,77,-99.99,,,-99.99,,2013-05-18 17:02:00,
2013-05-18 12:12:00,77.0,68.0,30.03,ESE,112,7.0,11.0,75,-99.99,,,-99.99,,2013-05-18 17:12:00,
2013-05-18 12:22:00,77.0,68.0,30.02,ESE,112,8.0,13.0,74,-99.99,,,-99.99,,2013-05-18 17:22:00,
2013-05-18 12:32:00,77.0,67.0,30.02,SE,135,8.0,13.0,72,-99.99,,,-99.99,,2013-05-18 17:32:00,
2013-05-18 12:42:00,77.0,67.0,30.02,SE,135,8.0,12.0,71,-99.99,,,-99.99,,2013-05-18 17:42:00,
2013-05-18 12:51:00,77.0,68.0,30.01,SE,135,7.0,12.0,73,-99.99,,,-99.99,,2013-05-18 17:51:00,
2013-05-18 13:01:00,77.0,67.0,30.01,SE,135,9.0,13.0,72,-99.99,,,-99.99,,2013-05-18 18:01:00,
2013-05-18 13:12:00,77.0,68.0,30.01,SSE,157,9.0,13.0,72,-99.99,,,-99.99,,2013-05-18 18:12:00,
2013-05-18 13:21:00,77.0,67.0,30.00,SE,135,10.0,17.0,71,-99.99,,,-99.99,,2013-05-18 18:21:00,
2013-05-18 13:32:00,77.0,67.0,30.00,SE,135,8.0,14.0,71,-99.99,,,-99.99,,2013-05-18 18:32:00,
2013-05-18 13:42:00,77.0,67.0,30.00,SE,135,8.0,13.0,72,-99.99,,,-99.99,,2013-05-18 18:42:00,
2013-05-18 13:52:00,78.0,68.0,30.00,ESE,112,9.0,13.0,71,-99.99,,,-99.99,,2013-05-18 18:52:00,
2013-05-18 14:02:00,79.0,68.0,29.99,SE,135,7.0,13.0,70,-99.99,,,-99.99,,2013-05-18 19:02:00,
2013-05-18 14:11:00,79.0,68.0,29.99,SE,135,7.0,12.0,69,-99.99,,,-99.99,,2013-05-18 19:11:00,
2013-05-18 14:22:00,79.0,68.0,29.99,SE,135,7.0,11.0,67,-99.99,,,-99.99,,2013-05-18 19:22:00,
2013-05-18 14:32:00,79.0,67.0,29.99,ESE,112,7.0,12.0,68,-99.99,,,-99.99,,2013-05-18 19:32:00,
2013-05-18 14:42:00,80.0,68.0,29.98,SE,135,7.0,13.0,66,-99.99,,,-99.99,,2013-05-18 19:42:00,
2013-05-18 14:52:00,79.0,67.0,29.99,ESE,112,6.0,12.0,67,-99.99,,,-99.99,,2013-05-18 19:52:00,
2013-05-18 15:01:00,80.0,67.0,29.99,SE,135,7.0,11.0,65,-99.99,,,-99.99,,2013-05-18 20:01:00,
2013-05-18 15:11:00,80.0,67.0,29.99,SE,135,7.0,13.0,65,-99.99,,,-99.99,,2013-05-18 20:11:00,
2013-05-18 15:22:00,79.0,66.0,29.98,SE,135,9.0,14.0,64,-99.99,,,-99.99,,2013-05-18 20:22:00,
2013-05-18 15:32:00,80.0,67.0,29.97,SE,135,8.0,14.0,64,-99.99,,,-99.99,,2013-05-18 20:32:00,
2013-05-18 15:42:00,80.0,67.0,29.97,SE,135,8.0,13.0,64,-99.99,,,-99.99,,2013-05-18 20:42:00,
2013-05-18 15:52:00,81.0,66.0,29.97,SE,135,9.0,13.0,62,-99.99,,,-99.99,,2013-05-18 20:52:00,
2013-05-18 16:01:00,80.0,66.0,29.97,SE,135,8.0,15.0,61,-99.99,,,-99.99,,2013-05-18 21:01:00,
2013-05-18 16:12:00,81.0,66.0,29.97,SE,135,7.0,11.0,61,-99.99,,,-99.99,,2013-05-18 21:12:00,
2013-05-18 16:21:00,81.0,65.0,29.97,South,180,9.0,12.0,58,-99.99,,,-99.99,,2013-05-18 21:21:00,
2013-05-18 16:32:00,81.0,67.0,29.97,SSE,157,8.0,12.0,61,-99.99,,,-99.99,,2013-05-18 21:32:00,
2013-05-18 16:43:00,82.0,67.0,29.97,SSE,157,7.0,11.0,60,-99.99,,,-99.99,,2013-05-18 21:43:00,
2013-05-18 16:53:00,81.0,65.0,29.97,SSE,157,8.0,14.0,60,-99.99,,,-99.99,,2013-05-18 21:53:00,
2013-05-18 17:03:00,82.0,65.0,29.97,SSE,157,9.0,13.0,58,-99.99,,,-99.99,,2013-05-18 22:03:00,
2013-05-18 17:12:00,81.0,66.0,29.97,SSE,157,8.0,12.0,59,-99.99,,,-99.99,,2013-05-18 22:12:00,
2013-05-18 17:23:00,81.0,65.0,29.97,SSE,157,9.0,13.0,59,-99.99,,,-99.99,,2013-05-18 22:23:00,
2013-05-18 17:33:00,81.0,66.0,29.97,SE,135,7.0,12.0,60,-99.99,,,-99.99,,2013-05-18 22:33:00,
2013-05-18 17:42:00,81.0,65.0,29.96,SSE,157,8.0,12.0,59,-99.99,,,-99.99,,2013-05-18 22:42:00,
2013-05-18 17:52:00,81.0,65.0,29.96,SSE,157,7.0,11.0,59,-99.99,,,-99.99,,2013-05-18 22:52:00,
2013-05-18 18:01:00,82.0,66.0,29.96,SE,135,5.0,8.0,59,-99.99,,,-99.99,,2013-05-18 23:01:00,
2013-05-18 18:11:00,80.0,65.0,29.96,SE,135,8.0,13.0,60,-99.99,,,-99.99,,2013-05-18 23:11:00,
2013-05-18 18:22:00,81.0,66.0,29.95,SE,135,7.0,12.0,61,-99.99,,,-99.99,,2013-05-18 23:22:00,
2013-05-18 18:32:00,81.0,66.0,29.95,ESE,112,7.0,11.0,61,-99.99,,,-99.99,,2013-05-18 23:32:00,
2013-05-18 18:41:00,80.0,66.0,29.95,SE,135,7.0,11.0,62,-99.99,,,-99.99,,2013-05-18 23:41:00,
2013-05-18 18:52:00,80.0,66.0,29.95,SE,135,6.0,9.0,63,-99.99,,,-99.99,,2013-05-18 23:52:00,
2013-05-18 19:01:00,80.0,66.0,29.94,SE,135,6.0,10.0,64,-99.99,,,-99.99,,2013-05-19 00:01:00,
2013-05-18 19:11:00,79.0,66.0,29.94,ESE,112,6.0,8.0,64,-99.99,,,-99.99,,2013-05-19 00:11:00,
2013-05-18 19:21:00,78.0,66.0,29.94,ESE,112,6.0,11.0,68,-99.99,,,-99.99,,2013-05-19 00:21:00,
2013-05-18 19:31:00,77.0,66.0,29.94,ESE,112,7.0,11.0,70,-99.99,,,-99.99,,2013-05-19 00:31:00,
2013-05-18 19:41:00,76.0,66.0,29.94,ESE,112,6.0,10.0,72,-99.99,,,-99.99,,2013-05-19 00:41:00,
2013-05-18 19:51:00,76.0,66.0,29.94,ESE,112,6.0,10.0,73,-99.99,,,-99.99,,2013-05-19 00:51:00,
2013-05-18 20:01:00,75.0,66.0,29.94,ESE,112,5.0,7.0,73,-99.99,,,-99.99,,2013-05-19 01:01:00,
2013-05-18 20:11:00,75.0,66.0,29.94,ESE,112,6.0,9.0,73,-99.99,,,-99.99,,2013-05-19 01:11:00,
2013-05-18 20:21:00,75.0,66.0,29.94,ESE,112,6.0,9.0,73,-99.99,,,-99.99,,2013-05-19 01:21:00,
2013-05-18 20:32:00,75.0,66.0,29.94,ESE,112,5.0,9.0,74,-99.99,,,-99.99,,2013-05-19 01:32:00,
2013-05-18 20:42:00,74.0,66.0,29.94,ESE,112,6.0,8.0,75,-99.99,,,-99.99,,2013-05-19 01:42:00,
2013-05-18 20:52:00,74.0,66.0,29.94,ESE,112,5.0,9.0,76,-99.99,,,-99.99,,2013-05-19 01:52:00,
2013-05-18 21:01:00,73.0,65.0,29.93,ESE,112,5.0,9.0,76,-99.99,,,-99.99,,2013-05-19 02:01:00,
2013-05-18 21:11:00,73.0,66.0,29.92,North,0,7.0,11.0,79,-99.99,,,-99.99,,2013-05-19 02:11:00,
2013-05-18 21:21:00,73.0,65.0,29.92,ESE,112,6.0,9.0,78,-99.99,,,-99.99,,2013-05-19 02:21:00,
2013-05-18 21:32:00,72.0,65.0,29.92,ESE,112,6.0,9.0,78,-99.99,,,-99.99,,2013-05-19 02:32:00,
2013-05-18 21:42:00,72.0,65.0,29.92,ESE,112,5.0,8.0,79,-99.99,,,-99.99,,2013-05-19 02:42:00,
2013-05-18 21:52:00,72.0,65.0,29.91,ESE,112,6.0,12.0,79,-99.99,,,-99.99,,2013-05-19 02:52:00,
2013-05-18 22:01:00,72.0,65.0,29.91,ESE,112,6.0,10.0,79,-99.99,,,-99.99,,2013-05-19 03:01:00,
2013-05-18 22:11:00,72.0,65.0,29.92,ESE,112,5.0,9.0,79,-99.99,,,-99.99,,2013-05-19 03:11:00,
2013-05-18 22:21:00,72.0,65.0,29.92,ESE,112,6.0,9.0,79,-99.99,,,-99.99,,2013-05-19 03:21:00,
2013-05-18 22:33:00,71.0,65.0,29.92,North,0,6.0,9.0,81,-99.99,,,-99.99,,2013-05-19 03:33:00,
2013-05-18 22:42:00,71.0,65.0,29.92,ESE,112,6.0,10.0,81,-99.99,,,-99.99,,2013-05-19 03:42:00,
2013-05-18 22:53:00,71.0,65.0,29.92,ESE,112,5.0,9.0,81,-99.99,,,-99.99,,2013-05-19 03:53:00,
2013-05-18 23:02:00,71.0,65.0,29.93,SE,135,6.0,10.0,80,-99.99,,,-99.99,,2013-05-19 04:02:00,
2013-05-18 23:12:00,71.0,65.0,29.93,SE,135,6.0,9.0,81,-99.99,,,-99.99,,2013-05-19 04:12:00,
2013-05-18 23:23:00,70.0,65.0,29.93,SE,135,6.0,11.0,82,-99.99,,,-99.99,,2013-05-19 04:23:00,
2013-05-18 23:33:00,70.0,65.0,29.93,ESE,112,6.0,9.0,83,-99.99,,,-99.99,,2013-05-19 04:33:00,
2013-05-18 23:42:00,70.0,65.0,29.93,SE,135,7.0,11.0,83,-99.99,,,-99.99,,2013-05-19 04:42:00,
2013-05-18 23:52:00,70.0,65.0,29.92,SE,135,7.0,11.0,84,-99.99,,,-99.99,,2013-05-19 04:52:00,